sensor_id;sensor_type;location;lat;lon;timestamp;temperature;humidity
4097;DHT22;2062;50.694;7.246;2022-11-14T00:02:24;23.60;34.60
4097;DHT22;2062;50.694;7.246;2022-11-14T00:04:50;23.50;34.60
4097;DHT22;2062;50.694;7.246;2022-11-14T00:07:17;23.50;34.60
4097;DHT22;2062;50.694;7.246;2022-11-14T00:09:44;23.50;34.60
4097;DHT22;2062;50.694;7.246;2022-11-14T00:12:11;23.50;34.60
4097;DHT22;2062;50.694;7.246;2022-11-14T00:14:39;23.50;34.60
4097;DHT22;2062;50.694;7.246;2022-11-14T00:17:06;23.50;34.50
4097;DHT22;2062;50.694;7.246;2022-11-14T00:19:33;23.50;34.50
4097;DHT22;2062;50.694;7.246;2022-11-14T00:22:00;23.50;34.50
4097;DHT22;2062;50.694;7.246;2022-11-14T00:24:26;23.50;34.50
4097;DHT22;2062;50.694;7.246;2022-11-14T00:26:53;23.50;34.50
4097;DHT22;2062;50.694;7.246;2022-11-14T00:29:20;23.50;34.50
4097;DHT22;2062;50.694;7.246;2022-11-14T00:31:48;23.50;34.50
4097;DHT22;2062;50.694;7.246;2022-11-14T00:34:15;23.50;34.50
4097;DHT22;2062;50.694;7.246;2022-11-14T00:36:42;23.50;34.50
4097;DHT22;2062;50.694;7.246;2022-11-14T00:39:11;23.50;34.50
4097;DHT22;2062;50.694;7.246;2022-11-14T00:41:38;23.50;34.50
4097;DHT22;2062;50.694;7.246;2022-11-14T00:44:04;23.60;34.50
4097;DHT22;2062;50.694;7.246;2022-11-14T00:46:31;23.50;34.50
4097;DHT22;2062;50.694;7.246;2022-11-14T00:48:59;23.60;34.50
4097;DHT22;2062;50.694;7.246;2022-11-14T00:51:26;23.50;34.50
4097;DHT22;2062;50.694;7.246;2022-11-14T00:53:53;23.50;34.50
4097;DHT22;2062;50.694;7.246;2022-11-14T00:56:20;23.50;34.50
4097;DHT22;2062;50.694;7.246;2022-11-14T00:58:47;23.50;34.50
4097;DHT22;2062;50.694;7.246;2022-11-14T01:01:14;23.50;34.50
4097;DHT22;2062;50.694;7.246;2022-11-14T01:03:40;23.50;34.40
4097;DHT22;2062;50.694;7.246;2022-11-14T01:06:10;23.50;34.40
4097;DHT22;2062;50.694;7.246;2022-11-14T01:08:38;23.50;34.40
4097;DHT22;2062;50.694;7.246;2022-11-14T01:11:08;23.50;34.40
4097;DHT22;2062;50.694;7.246;2022-11-14T01:13:35;23.50;34.40
4097;DHT22;2062;50.694;7.246;2022-11-14T01:16:03;23.60;34.50
4097;DHT22;2062;50.694;7.246;2022-11-14T01:18:29;23.50;34.40
4097;DHT22;2062;50.694;7.246;2022-11-14T01:20:56;23.50;34.40
4097;DHT22;2062;50.694;7.246;2022-11-14T01:23:24;23.50;34.50
4097;DHT22;2062;50.694;7.246;2022-11-14T01:25:51;23.50;34.40
4097;DHT22;2062;50.694;7.246;2022-11-14T01:28:18;23.50;34.40
4097;DHT22;2062;50.694;7.246;2022-11-14T01:30:45;23.50;34.40
4097;DHT22;2062;50.694;7.246;2022-11-14T01:33:12;23.50;34.40
4097;DHT22;2062;50.694;7.246;2022-11-14T01:35:39;23.50;34.40
4097;DHT22;2062;50.694;7.246;2022-11-14T01:38:05;23.50;34.40
4097;DHT22;2062;50.694;7.246;2022-11-14T01:40:33;23.50;34.40
4097;DHT22;2062;50.694;7.246;2022-11-14T01:43:23;23.50;34.40
4097;DHT22;2062;50.694;7.246;2022-11-14T01:45:53;23.50;34.40
4097;DHT22;2062;50.694;7.246;2022-11-14T01:48:23;23.50;34.40
4097;DHT22;2062;50.694;7.246;2022-11-14T01:50:56;23.50;34.40
4097;DHT22;2062;50.694;7.246;2022-11-14T01:53:24;23.50;34.40
4097;DHT22;2062;50.694;7.246;2022-11-14T01:55:55;23.50;34.40
4097;DHT22;2062;50.694;7.246;2022-11-14T01:58:24;23.50;34.40
4097;DHT22;2062;50.694;7.246;2022-11-14T02:00:51;23.50;34.40
4097;DHT22;2062;50.694;7.246;2022-11-14T02:03:18;23.50;34.40
4097;DHT22;2062;50.694;7.246;2022-11-14T02:05:47;23.40;34.30
4097;DHT22;2062;50.694;7.246;2022-11-14T02:08:14;23.50;34.40
4097;DHT22;2062;50.694;7.246;2022-11-14T02:10:42;23.50;34.40
4097;DHT22;2062;50.694;7.246;2022-11-14T02:13:10;23.50;34.40
4097;DHT22;2062;50.694;7.246;2022-11-14T02:15:37;23.50;34.40
4097;DHT22;2062;50.694;7.246;2022-11-14T02:18:04;23.50;34.40
4097;DHT22;2062;50.694;7.246;2022-11-14T02:20:36;23.40;34.30
4097;DHT22;2062;50.694;7.246;2022-11-14T02:23:03;23.50;34.40
4097;DHT22;2062;50.694;7.246;2022-11-14T02:25:29;23.40;34.30
4097;DHT22;2062;50.694;7.246;2022-11-14T02:27:57;23.50;34.40
4097;DHT22;2062;50.694;7.246;2022-11-14T02:30:25;23.40;34.20
4097;DHT22;2062;50.694;7.246;2022-11-14T02:32:52;23.50;34.40
4097;DHT22;2062;50.694;7.246;2022-11-14T02:35:19;23.50;34.30
4097;DHT22;2062;50.694;7.246;2022-11-14T02:37:47;23.50;34.40
4097;DHT22;2062;50.694;7.246;2022-11-14T02:40:14;23.40;34.30
4097;DHT22;2062;50.694;7.246;2022-11-14T02:42:40;23.40;34.30
4097;DHT22;2062;50.694;7.246;2022-11-14T02:45:08;23.50;34.30
4097;DHT22;2062;50.694;7.246;2022-11-14T02:47:36;23.40;34.20
4097;DHT22;2062;50.694;7.246;2022-11-14T02:50:03;23.40;34.20
4097;DHT22;2062;50.694;7.246;2022-11-14T02:52:30;23.40;34.20
4097;DHT22;2062;50.694;7.246;2022-11-14T02:54:58;23.40;34.20
4097;DHT22;2062;50.694;7.246;2022-11-14T02:57:24;23.50;34.30
4097;DHT22;2062;50.694;7.246;2022-11-14T02:59:51;23.50;34.30
4097;DHT22;2062;50.694;7.246;2022-11-14T03:02:18;23.40;34.20
4097;DHT22;2062;50.694;7.246;2022-11-14T03:04:45;23.40;34.20
4097;DHT22;2062;50.694;7.246;2022-11-14T03:07:11;23.40;34.20
4097;DHT22;2062;50.694;7.246;2022-11-14T03:09:38;23.50;34.30
4097;DHT22;2062;50.694;7.246;2022-11-14T03:12:07;23.40;34.20
4097;DHT22;2062;50.694;7.246;2022-11-14T03:14:33;23.40;34.20
4097;DHT22;2062;50.694;7.246;2022-11-14T03:17:01;23.50;34.30
4097;DHT22;2062;50.694;7.246;2022-11-14T03:19:27;23.40;34.20
4097;DHT22;2062;50.694;7.246;2022-11-14T03:21:54;23.40;34.20
4097;DHT22;2062;50.694;7.246;2022-11-14T03:24:21;23.40;34.20
4097;DHT22;2062;50.694;7.246;2022-11-14T03:26:48;23.50;34.20
4097;DHT22;2062;50.694;7.246;2022-11-14T03:29:16;23.40;34.20
4097;DHT22;2062;50.694;7.246;2022-11-14T03:31:42;23.50;34.30
4097;DHT22;2062;50.694;7.246;2022-11-14T03:34:09;23.40;34.20
4097;DHT22;2062;50.694;7.246;2022-11-14T03:36:37;23.40;34.20
4097;DHT22;2062;50.694;7.246;2022-11-14T03:39:04;23.50;34.20
4097;DHT22;2062;50.694;7.246;2022-11-14T03:41:31;23.40;34.10
4097;DHT22;2062;50.694;7.246;2022-11-14T03:43:58;23.40;34.10
4097;DHT22;2062;50.694;7.246;2022-11-14T03:46:26;23.50;34.20
4097;DHT22;2062;50.694;7.246;2022-11-14T03:48:53;23.40;34.10
4097;DHT22;2062;50.694;7.246;2022-11-14T03:51:19;23.50;34.20
4097;DHT22;2062;50.694;7.246;2022-11-14T03:53:46;23.40;34.10
4097;DHT22;2062;50.694;7.246;2022-11-14T03:56:13;23.40;34.10
4097;DHT22;2062;50.694;7.246;2022-11-14T03:58:40;23.40;34.10
4097;DHT22;2062;50.694;7.246;2022-11-14T04:01:07;23.40;34.10
4097;DHT22;2062;50.694;7.246;2022-11-14T04:03:35;23.40;34.10
4097;DHT22;2062;50.694;7.246;2022-11-14T04:06:01;23.50;34.20
4097;DHT22;2062;50.694;7.246;2022-11-14T04:08:29;23.40;34.10
4097;DHT22;2062;50.694;7.246;2022-11-14T04:10:56;23.40;34.10
4097;DHT22;2062;50.694;7.246;2022-11-14T04:13:23;23.40;34.10
4097;DHT22;2062;50.694;7.246;2022-11-14T04:15:54;23.40;34.10
4097;DHT22;2062;50.694;7.246;2022-11-14T04:18:21;23.40;34.00
4097;DHT22;2062;50.694;7.246;2022-11-14T04:20:49;23.40;34.10
4097;DHT22;2062;50.694;7.246;2022-11-14T04:23:16;23.40;34.00
4097;DHT22;2062;50.694;7.246;2022-11-14T04:25:43;23.40;34.00
4097;DHT22;2062;50.694;7.246;2022-11-14T04:28:10;23.40;34.10
4097;DHT22;2062;50.694;7.246;2022-11-14T04:30:37;23.50;34.20
4097;DHT22;2062;50.694;7.246;2022-11-14T04:33:04;23.40;34.00
4097;DHT22;2062;50.694;7.246;2022-11-14T04:35:31;23.40;34.00
4097;DHT22;2062;50.694;7.246;2022-11-14T04:37:59;23.40;34.00
4097;DHT22;2062;50.694;7.246;2022-11-14T04:40:26;23.40;34.10
4097;DHT22;2062;50.694;7.246;2022-11-14T04:42:53;23.40;34.00
4097;DHT22;2062;50.694;7.246;2022-11-14T04:45:19;23.40;34.00
4097;DHT22;2062;50.694;7.246;2022-11-14T04:47:46;23.40;34.00
4097;DHT22;2062;50.694;7.246;2022-11-14T04:50:13;23.40;34.00
4097;DHT22;2062;50.694;7.246;2022-11-14T04:52:40;23.50;34.10
4097;DHT22;2062;50.694;7.246;2022-11-14T04:55:08;23.40;34.00
4097;DHT22;2062;50.694;7.246;2022-11-14T04:57:35;23.40;34.00
4097;DHT22;2062;50.694;7.246;2022-11-14T05:00:02;23.40;34.00
4097;DHT22;2062;50.694;7.246;2022-11-14T05:02:30;23.40;34.00
4097;DHT22;2062;50.694;7.246;2022-11-14T05:04:57;23.40;34.00
4097;DHT22;2062;50.694;7.246;2022-11-14T05:07:23;23.40;34.00
4097;DHT22;2062;50.694;7.246;2022-11-14T05:09:50;23.40;34.00
4097;DHT22;2062;50.694;7.246;2022-11-14T05:12:18;23.40;34.00
4097;DHT22;2062;50.694;7.246;2022-11-14T05:14:45;23.40;34.00
4097;DHT22;2062;50.694;7.246;2022-11-14T05:17:12;23.50;34.10
4097;DHT22;2062;50.694;7.246;2022-11-14T05:19:39;23.40;34.10
4097;DHT22;2062;50.694;7.246;2022-11-14T05:22:05;23.40;34.30
4097;DHT22;2062;50.694;7.246;2022-11-14T05:24:32;23.40;33.90
4097;DHT22;2062;50.694;7.246;2022-11-14T05:26:59;23.40;33.70
4097;DHT22;2062;50.694;7.246;2022-11-14T05:29:27;23.40;34.00
4097;DHT22;2062;50.694;7.246;2022-11-14T05:31:54;23.30;34.10
4097;DHT22;2062;50.694;7.246;2022-11-14T05:34:20;23.50;34.20
4097;DHT22;2062;50.694;7.246;2022-11-14T05:36:47;23.40;34.20
4097;DHT22;2062;50.694;7.246;2022-11-14T05:39:14;23.40;34.30
4097;DHT22;2062;50.694;7.246;2022-11-14T05:41:41;23.40;34.40
4097;DHT22;2062;50.694;7.246;2022-11-14T05:44:08;23.40;34.50
4097;DHT22;2062;50.694;7.246;2022-11-14T05:46:36;23.40;34.50
4097;DHT22;2062;50.694;7.246;2022-11-14T05:49:03;23.40;34.50
4097;DHT22;2062;50.694;7.246;2022-11-14T05:51:29;23.40;34.50
4097;DHT22;2062;50.694;7.246;2022-11-14T05:53:56;23.40;34.40
4097;DHT22;2062;50.694;7.246;2022-11-14T05:56:23;23.40;34.40
4097;DHT22;2062;50.694;7.246;2022-11-14T05:58:50;23.40;34.40
4097;DHT22;2062;50.694;7.246;2022-11-14T06:01:18;23.40;35.00
4097;DHT22;2062;50.694;7.246;2022-11-14T06:03:47;23.40;33.30
4097;DHT22;2062;50.694;7.246;2022-11-14T06:06:16;23.30;33.60
4097;DHT22;2062;50.694;7.246;2022-11-14T06:08:43;23.30;33.90
4097;DHT22;2062;50.694;7.246;2022-11-14T06:11:11;23.30;33.90
4097;DHT22;2062;50.694;7.246;2022-11-14T06:13:39;23.30;34.10
4097;DHT22;2062;50.694;7.246;2022-11-14T06:16:08;23.30;34.10
4097;DHT22;2062;50.694;7.246;2022-11-14T06:18:36;23.30;34.20
4097;DHT22;2062;50.694;7.246;2022-11-14T06:21:06;23.30;34.20
4097;DHT22;2062;50.694;7.246;2022-11-14T06:23:33;23.30;34.20
4097;DHT22;2062;50.694;7.246;2022-11-14T06:26:00;23.30;34.30
4097;DHT22;2062;50.694;7.246;2022-11-14T06:28:28;23.30;34.30
4097;DHT22;2062;50.694;7.246;2022-11-14T06:30:57;23.30;34.30
4097;DHT22;2062;50.694;7.246;2022-11-14T06:33:25;23.30;34.40
4097;DHT22;2062;50.694;7.246;2022-11-14T06:35:56;23.30;34.40
4097;DHT22;2062;50.694;7.246;2022-11-14T06:38:25;23.30;34.40
4097;DHT22;2062;50.694;7.246;2022-11-14T06:40:52;23.40;34.40
4097;DHT22;2062;50.694;7.246;2022-11-14T06:43:19;23.30;34.40
4097;DHT22;2062;50.694;7.246;2022-11-14T06:45:45;23.30;34.40
4097;DHT22;2062;50.694;7.246;2022-11-14T06:48:12;23.30;34.50
4097;DHT22;2062;50.694;7.246;2022-11-14T06:50:39;23.30;34.50
4097;DHT22;2062;50.694;7.246;2022-11-14T06:53:06;23.30;34.40
4097;DHT22;2062;50.694;7.246;2022-11-14T06:55:34;23.30;34.50
4097;DHT22;2062;50.694;7.246;2022-11-14T06:58:00;23.30;34.40
4097;DHT22;2062;50.694;7.246;2022-11-14T07:00:27;23.30;34.50
4097;DHT22;2062;50.694;7.246;2022-11-14T07:02:54;23.30;34.50
4097;DHT22;2062;50.694;7.246;2022-11-14T07:05:21;23.30;34.50
4097;DHT22;2062;50.694;7.246;2022-11-14T07:07:47;23.30;34.50
4097;DHT22;2062;50.694;7.246;2022-11-14T07:10:14;23.30;34.30
4097;DHT22;2062;50.694;7.246;2022-11-14T07:12:42;23.30;34.30
4097;DHT22;2062;50.694;7.246;2022-11-14T07:15:09;23.20;34.40
4097;DHT22;2062;50.694;7.246;2022-11-14T07:17:36;23.20;34.40
4097;DHT22;2062;50.694;7.246;2022-11-14T07:20:04;23.30;34.40
4097;DHT22;2062;50.694;7.246;2022-11-14T07:22:31;23.20;34.20
4097;DHT22;2062;50.694;7.246;2022-11-14T07:24:57;23.30;34.40
4097;DHT22;2062;50.694;7.246;2022-11-14T07:27:24;23.20;34.30
4097;DHT22;2062;50.694;7.246;2022-11-14T07:29:52;23.30;34.40
4097;DHT22;2062;50.694;7.246;2022-11-14T07:32:19;23.30;34.50
4097;DHT22;2062;50.694;7.246;2022-11-14T07:34:46;23.30;34.50
4097;DHT22;2062;50.694;7.246;2022-11-14T07:37:13;23.30;34.50
4097;DHT22;2062;50.694;7.246;2022-11-14T07:39:39;23.30;34.50
4097;DHT22;2062;50.694;7.246;2022-11-14T07:42:06;23.30;34.60
4097;DHT22;2062;50.694;7.246;2022-11-14T07:44:33;23.30;34.50
4097;DHT22;2062;50.694;7.246;2022-11-14T07:47:02;23.30;34.50
4097;DHT22;2062;50.694;7.246;2022-11-14T07:49:28;23.30;34.60
4097;DHT22;2062;50.694;7.246;2022-11-14T07:51:55;23.30;34.60
4097;DHT22;2062;50.694;7.246;2022-11-14T07:54:22;23.30;34.60
4097;DHT22;2062;50.694;7.246;2022-11-14T07:56:49;23.30;34.60
4097;DHT22;2062;50.694;7.246;2022-11-14T07:59:15;23.30;34.50
4097;DHT22;2062;50.694;7.246;2022-11-14T08:01:42;23.30;34.60
4097;DHT22;2062;50.694;7.246;2022-11-14T08:04:10;23.30;34.60
4097;DHT22;2062;50.694;7.246;2022-11-14T08:06:37;23.30;34.60
4097;DHT22;2062;50.694;7.246;2022-11-14T08:09:04;23.40;34.50
4097;DHT22;2062;50.694;7.246;2022-11-14T08:11:30;23.30;34.50
4097;DHT22;2062;50.694;7.246;2022-11-14T08:14:16;23.30;34.50
4097;DHT22;2062;50.694;7.246;2022-11-14T08:16:43;23.30;34.50
4097;DHT22;2062;50.694;7.246;2022-11-14T08:19:11;23.20;34.40
4097;DHT22;2062;50.694;7.246;2022-11-14T08:21:37;23.30;34.50
4097;DHT22;2062;50.694;7.246;2022-11-14T08:24:05;23.30;34.50
4097;DHT22;2062;50.694;7.246;2022-11-14T08:26:31;23.30;34.50
4097;DHT22;2062;50.694;7.246;2022-11-14T08:28:58;23.30;34.50
4097;DHT22;2062;50.694;7.246;2022-11-14T08:31:25;23.30;34.50
4097;DHT22;2062;50.694;7.246;2022-11-14T08:33:52;23.20;34.40
4097;DHT22;2062;50.694;7.246;2022-11-14T08:36:20;23.20;34.40
4097;DHT22;2062;50.694;7.246;2022-11-14T08:38:47;23.20;34.40
4097;DHT22;2062;50.694;7.246;2022-11-14T08:41:14;23.20;34.40
4097;DHT22;2062;50.694;7.246;2022-11-14T08:43:40;23.20;34.40
4097;DHT22;2062;50.694;7.246;2022-11-14T08:46:08;23.30;34.50
4097;DHT22;2062;50.694;7.246;2022-11-14T08:48:34;23.20;34.40
4097;DHT22;2062;50.694;7.246;2022-11-14T08:51:02;23.20;34.40
4097;DHT22;2062;50.694;7.246;2022-11-14T08:53:31;23.20;34.50
4097;DHT22;2062;50.694;7.246;2022-11-14T08:55:58;23.20;34.50
4097;DHT22;2062;50.694;7.246;2022-11-14T08:58:27;23.20;34.50
4097;DHT22;2062;50.694;7.246;2022-11-14T09:00:57;23.20;34.40
4097;DHT22;2062;50.694;7.246;2022-11-14T09:03:24;23.20;34.50
4097;DHT22;2062;50.694;7.246;2022-11-14T09:05:51;23.20;34.40
4097;DHT22;2062;50.694;7.246;2022-11-14T09:08:18;23.30;34.60
4097;DHT22;2062;50.694;7.246;2022-11-14T09:10:47;23.20;34.50
4097;DHT22;2062;50.694;7.246;2022-11-14T09:13:13;23.20;34.50
4097;DHT22;2062;50.694;7.246;2022-11-14T09:15:41;23.20;34.50
4097;DHT22;2062;50.694;7.246;2022-11-14T09:18:08;23.20;34.50
4097;DHT22;2062;50.694;7.246;2022-11-14T09:20:35;23.20;34.50
4097;DHT22;2062;50.694;7.246;2022-11-14T09:23:02;23.20;34.50
4097;DHT22;2062;50.694;7.246;2022-11-14T09:25:29;23.20;34.50
4097;DHT22;2062;50.694;7.246;2022-11-14T09:28:01;23.20;34.50
4097;DHT22;2062;50.694;7.246;2022-11-14T09:30:28;23.20;34.50
4097;DHT22;2062;50.694;7.246;2022-11-14T09:32:58;23.20;34.50
4097;DHT22;2062;50.694;7.246;2022-11-14T09:35:26;23.20;34.60
4097;DHT22;2062;50.694;7.246;2022-11-14T09:37:58;23.20;34.50
4097;DHT22;2062;50.694;7.246;2022-11-14T09:40:25;23.20;34.50
4097;DHT22;2062;50.694;7.246;2022-11-14T09:43:12;23.20;34.50
4097;DHT22;2062;50.694;7.246;2022-11-14T09:45:47;23.20;34.50
4097;DHT22;2062;50.694;7.246;2022-11-14T09:48:18;23.20;34.50
4097;DHT22;2062;50.694;7.246;2022-11-14T09:50:52;23.20;34.50
4097;DHT22;2062;50.694;7.246;2022-11-14T09:53:25;23.20;34.50
4097;DHT22;2062;50.694;7.246;2022-11-14T09:55:55;23.20;34.50
4097;DHT22;2062;50.694;7.246;2022-11-14T09:58:25;23.20;34.50
4097;DHT22;2062;50.694;7.246;2022-11-14T10:00:57;23.20;34.50
4097;DHT22;2062;50.694;7.246;2022-11-14T10:03:32;23.20;34.50
4097;DHT22;2062;50.694;7.246;2022-11-14T10:06:13;23.20;34.50
4097;DHT22;2062;50.694;7.246;2022-11-14T10:08:49;23.20;34.50
4097;DHT22;2062;50.694;7.246;2022-11-14T10:11:22;23.20;34.50
4097;DHT22;2062;50.694;7.246;2022-11-14T10:14:18;23.20;34.50
4097;DHT22;2062;50.694;7.246;2022-11-14T10:16:56;23.10;34.60
4097;DHT22;2062;50.694;7.246;2022-11-14T10:19:31;23.10;34.50
4097;DHT22;2062;50.694;7.246;2022-11-14T10:22:10;23.20;34.50
4097;DHT22;2062;50.694;7.246;2022-11-14T10:25:13;23.20;34.50
4097;DHT22;2062;50.694;7.246;2022-11-14T10:27:52;23.10;34.50
4097;DHT22;2062;50.694;7.246;2022-11-14T10:30:31;23.10;34.50
4097;DHT22;2062;50.694;7.246;2022-11-14T10:33:19;23.10;34.50
4097;DHT22;2062;50.694;7.246;2022-11-14T10:35:53;23.10;34.60
4097;DHT22;2062;50.694;7.246;2022-11-14T10:38:28;23.10;34.50
4097;DHT22;2062;50.694;7.246;2022-11-14T10:40:59;23.20;34.50
4097;DHT22;2062;50.694;7.246;2022-11-14T10:43:31;23.10;34.50
4097;DHT22;2062;50.694;7.246;2022-11-14T10:46:04;23.10;34.60
4097;DHT22;2062;50.694;7.246;2022-11-14T10:48:34;23.10;34.60
4097;DHT22;2062;50.694;7.246;2022-11-14T10:51:06;23.10;34.50
4097;DHT22;2062;50.694;7.246;2022-11-14T10:53:42;23.10;34.50
4097;DHT22;2062;50.694;7.246;2022-11-14T10:56:11;23.10;34.50
4097;DHT22;2062;50.694;7.246;2022-11-14T10:58:39;23.10;34.60
4097;DHT22;2062;50.694;7.246;2022-11-14T11:01:32;23.10;34.60
4097;DHT22;2062;50.694;7.246;2022-11-14T11:04:11;23.10;34.60
4097;DHT22;2062;50.694;7.246;2022-11-14T11:06:38;23.10;34.70
4097;DHT22;2062;50.694;7.246;2022-11-14T11:09:07;23.10;34.70
4097;DHT22;2062;50.694;7.246;2022-11-14T11:11:56;23.10;34.70
4097;DHT22;2062;50.694;7.246;2022-11-14T11:14:23;23.10;34.70
4097;DHT22;2062;50.694;7.246;2022-11-14T11:17:06;23.10;34.80
4097;DHT22;2062;50.694;7.246;2022-11-14T11:19:33;23.10;34.80
4097;DHT22;2062;50.694;7.246;2022-11-14T11:22:00;23.10;34.80
4097;DHT22;2062;50.694;7.246;2022-11-14T11:24:31;23.10;34.80
4097;DHT22;2062;50.694;7.246;2022-11-14T11:27:12;23.10;34.80
4097;DHT22;2062;50.694;7.246;2022-11-14T11:29:39;23.10;34.80
4097;DHT22;2062;50.694;7.246;2022-11-14T11:32:08;23.10;34.80
4097;DHT22;2062;50.694;7.246;2022-11-14T11:34:35;23.10;34.80
4097;DHT22;2062;50.694;7.246;2022-11-14T11:37:08;23.10;34.80
4097;DHT22;2062;50.694;7.246;2022-11-14T11:39:42;23.10;34.80
4097;DHT22;2062;50.694;7.246;2022-11-14T11:42:15;23.10;35.50
4097;DHT22;2062;50.694;7.246;2022-11-14T11:44:46;23.10;34.80
4097;DHT22;2062;50.694;7.246;2022-11-14T11:47:17;23.10;34.80
4097;DHT22;2062;50.694;7.246;2022-11-14T11:49:45;23.10;34.80
4097;DHT22;2062;50.694;7.246;2022-11-14T11:52:16;23.10;34.80
4097;DHT22;2062;50.694;7.246;2022-11-14T11:54:52;23.10;34.80
4097;DHT22;2062;50.694;7.246;2022-11-14T11:57:27;23.10;34.80
4097;DHT22;2062;50.694;7.246;2022-11-14T12:00:00;23.10;34.80
4097;DHT22;2062;50.694;7.246;2022-11-14T12:02:30;23.10;34.80
4097;DHT22;2062;50.694;7.246;2022-11-14T12:04:58;23.10;34.80
4097;DHT22;2062;50.694;7.246;2022-11-14T12:07:35;23.10;34.80
4097;DHT22;2062;50.694;7.246;2022-11-14T12:10:10;23.10;34.80
4097;DHT22;2062;50.694;7.246;2022-11-14T12:12:57;23.10;34.80
4097;DHT22;2062;50.694;7.246;2022-11-14T12:15:37;23.10;35.20
4097;DHT22;2062;50.694;7.246;2022-11-14T12:18:25;23.10;34.80
4097;DHT22;2062;50.694;7.246;2022-11-14T12:21:17;23.10;34.80
4097;DHT22;2062;50.694;7.246;2022-11-14T12:24:07;23.10;34.80
4097;DHT22;2062;50.694;7.246;2022-11-14T12:26:50;23.10;34.90
4097;DHT22;2062;50.694;7.246;2022-11-14T12:29:34;23.10;35.00
4097;DHT22;2062;50.694;7.246;2022-11-14T12:32:14;23.10;35.00
4097;DHT22;2062;50.694;7.246;2022-11-14T12:34:45;23.20;35.00
4097;DHT22;2062;50.694;7.246;2022-11-14T12:37:16;23.10;35.00
4097;DHT22;2062;50.694;7.246;2022-11-14T12:39:54;23.10;35.00
4097;DHT22;2062;50.694;7.246;2022-11-14T12:42:22;23.10;35.00
4097;DHT22;2062;50.694;7.246;2022-11-14T12:44:49;23.20;35.00
4097;DHT22;2062;50.694;7.246;2022-11-14T12:47:20;23.10;35.00
4097;DHT22;2062;50.694;7.246;2022-11-14T12:52:46;23.20;35.00
4097;DHT22;2062;50.694;7.246;2022-11-14T12:55:55;23.20;35.00
4097;DHT22;2062;50.694;7.246;2022-11-14T12:59:00;23.20;35.00
4097;DHT22;2062;50.694;7.246;2022-11-14T13:01:49;23.20;35.00
4097;DHT22;2062;50.694;7.246;2022-11-14T13:04:33;23.20;35.00
4097;DHT22;2062;50.694;7.246;2022-11-14T13:07:18;23.20;34.90
4097;DHT22;2062;50.694;7.246;2022-11-14T13:09:58;23.20;34.90
4097;DHT22;2062;50.694;7.246;2022-11-14T13:12:30;23.20;34.90
4097;DHT22;2062;50.694;7.246;2022-11-14T13:15:34;23.20;34.90
4097;DHT22;2062;50.694;7.246;2022-11-14T13:18:22;23.20;34.80
4097;DHT22;2062;50.694;7.246;2022-11-14T13:21:17;23.20;34.80
4097;DHT22;2062;50.694;7.246;2022-11-14T13:24:03;23.10;34.80
4097;DHT22;2062;50.694;7.246;2022-11-14T13:26:47;23.20;34.70
4097;DHT22;2062;50.694;7.246;2022-11-14T13:35:47;23.20;34.60
4097;DHT22;2062;50.694;7.246;2022-11-14T13:41:27;23.10;34.60
4097;DHT22;2062;50.694;7.246;2022-11-14T13:44:08;23.10;34.60
4097;DHT22;2062;50.694;7.246;2022-11-14T13:46:56;23.10;34.60
4097;DHT22;2062;50.694;7.246;2022-11-14T13:49:39;23.10;34.60
4097;DHT22;2062;50.694;7.246;2022-11-14T13:52:14;23.10;34.50
4097;DHT22;2062;50.694;7.246;2022-11-14T13:54:45;23.10;34.50
4097;DHT22;2062;50.694;7.246;2022-11-14T13:57:20;23.10;34.60
4097;DHT22;2062;50.694;7.246;2022-11-14T14:00:07;23.10;34.50
4097;DHT22;2062;50.694;7.246;2022-11-14T14:02:57;23.10;34.50
4097;DHT22;2062;50.694;7.246;2022-11-14T14:05:37;23.10;34.50
4097;DHT22;2062;50.694;7.246;2022-11-14T14:08:15;23.10;35.20
4097;DHT22;2062;50.694;7.246;2022-11-14T14:10:55;23.20;34.50
4097;DHT22;2062;50.694;7.246;2022-11-14T14:13:34;23.10;35.10
4097;DHT22;2062;50.694;7.246;2022-11-14T14:16:10;23.10;34.40
4097;DHT22;2062;50.694;7.246;2022-11-14T14:18:46;23.10;34.50
4097;DHT22;2062;50.694;7.246;2022-11-14T14:21:24;23.10;34.40
4097;DHT22;2062;50.694;7.246;2022-11-14T14:24:01;23.10;34.50
4097;DHT22;2062;50.694;7.246;2022-11-14T14:26:35;23.10;34.50
4097;DHT22;2062;50.694;7.246;2022-11-14T14:29:14;23.10;34.50
4097;DHT22;2062;50.694;7.246;2022-11-14T14:31:44;23.10;34.40
4097;DHT22;2062;50.694;7.246;2022-11-14T14:34:21;23.10;34.50
4097;DHT22;2062;50.694;7.246;2022-11-14T14:36:50;23.10;34.40
4097;DHT22;2062;50.694;7.246;2022-11-14T14:39:19;23.00;34.40
4097;DHT22;2062;50.694;7.246;2022-11-14T14:41:47;23.00;34.40
4097;DHT22;2062;50.694;7.246;2022-11-14T14:44:21;23.10;34.50
4097;DHT22;2062;50.694;7.246;2022-11-14T14:46:49;23.10;34.50
4097;DHT22;2062;50.694;7.246;2022-11-14T14:49:19;23.10;34.50
4097;DHT22;2062;50.694;7.246;2022-11-14T14:51:47;23.10;34.40
4097;DHT22;2062;50.694;7.246;2022-11-14T14:54:21;23.10;34.40
4097;DHT22;2062;50.694;7.246;2022-11-14T14:56:52;23.10;34.40
4097;DHT22;2062;50.694;7.246;2022-11-14T14:59:23;23.10;34.40
4097;DHT22;2062;50.694;7.246;2022-11-14T15:01:50;23.10;34.40
4097;DHT22;2062;50.694;7.246;2022-11-14T15:04:19;23.10;34.40
4097;DHT22;2062;50.694;7.246;2022-11-14T15:06:47;23.00;34.40
4097;DHT22;2062;50.694;7.246;2022-11-14T15:09:18;23.00;34.40
4097;DHT22;2062;50.694;7.246;2022-11-14T15:11:48;23.10;34.40
4097;DHT22;2062;50.694;7.246;2022-11-14T15:14:17;23.10;34.40
4097;DHT22;2062;50.694;7.246;2022-11-14T15:16:47;23.10;34.40
4097;DHT22;2062;50.694;7.246;2022-11-14T15:19:18;23.00;34.40
4097;DHT22;2062;50.694;7.246;2022-11-14T15:22:01;23.00;34.30
4097;DHT22;2062;50.694;7.246;2022-11-14T15:24:29;23.00;34.30
4097;DHT22;2062;50.694;7.246;2022-11-14T15:26:56;23.10;34.40
4097;DHT22;2062;50.694;7.246;2022-11-14T15:29:25;23.00;34.30
4097;DHT22;2062;50.694;7.246;2022-11-14T15:31:56;23.00;34.30
4097;DHT22;2062;50.694;7.246;2022-11-14T15:34:26;23.10;34.40
4097;DHT22;2062;50.694;7.246;2022-11-14T15:37:07;23.00;34.40
4097;DHT22;2062;50.694;7.246;2022-11-14T15:39:45;23.00;34.30
4097;DHT22;2062;50.694;7.246;2022-11-14T15:42:12;23.00;34.30
4097;DHT22;2062;50.694;7.246;2022-11-14T15:44:40;23.10;35.00
4097;DHT22;2062;50.694;7.246;2022-11-14T15:47:11;23.00;35.00
4097;DHT22;2062;50.694;7.246;2022-11-14T15:49:39;23.00;34.30
4097;DHT22;2062;50.694;7.246;2022-11-14T15:52:17;23.00;34.30
4097;DHT22;2062;50.694;7.246;2022-11-14T15:54:45;23.00;34.30
4097;DHT22;2062;50.694;7.246;2022-11-14T15:57:14;23.00;34.30
4097;DHT22;2062;50.694;7.246;2022-11-14T15:59:42;23.00;34.30
4097;DHT22;2062;50.694;7.246;2022-11-14T16:02:13;23.00;34.30
4097;DHT22;2062;50.694;7.246;2022-11-14T16:04:42;23.00;34.30
4097;DHT22;2062;50.694;7.246;2022-11-14T16:07:11;23.00;34.30
4097;DHT22;2062;50.694;7.246;2022-11-14T16:09:38;23.00;34.40
4097;DHT22;2062;50.694;7.246;2022-11-14T16:12:06;23.00;34.40
4097;DHT22;2062;50.694;7.246;2022-11-14T16:14:33;23.00;34.50
4097;DHT22;2062;50.694;7.246;2022-11-14T16:17:00;23.00;34.50
4097;DHT22;2062;50.694;7.246;2022-11-14T16:19:28;23.10;34.60
4097;DHT22;2062;50.694;7.246;2022-11-14T16:21:57;23.10;34.50
4097;DHT22;2062;50.694;7.246;2022-11-14T16:24:27;23.00;34.40
4097;DHT22;2062;50.694;7.246;2022-11-14T16:26:54;23.00;34.30
4097;DHT22;2062;50.694;7.246;2022-11-14T16:29:22;23.10;34.40
4097;DHT22;2062;50.694;7.246;2022-11-14T16:31:49;23.10;34.40
4097;DHT22;2062;50.694;7.246;2022-11-14T16:34:18;23.00;34.30
4097;DHT22;2062;50.694;7.246;2022-11-14T16:36:46;23.10;34.30